Time;durP1;ratioP1;P1;durP2;ratioP2;P2;SDS_P1;SDS_P2;PMS_P1;PMS_P2;Temp;Humidity;BMP_temperature;BMP_pressure;BME280_temperature;BME280_humidity;BME280_pressure;Samples;Min_cycle;Max_cycle;Signal;HPM_P1;HPM_P2
2022/07/18 00:00:50;;;;;;;5.03;2.22;;;;;;;;;;5089874;28;20695;-63
2022/07/18 00:03:18;;;;;;;2.92;2.28;;;;;;;;;;5089684;28;20224;-64
2022/07/18 00:05:46;;;;;;;2.40;2.20;;;;;;;;;;5088934;28;20262;-64
2022/07/18 00:08:15;;;;;;;2.53;2.15;;;;;;;;;;5097714;28;20235;-64
2022/07/18 00:10:43;;;;;;;2.45;2.10;;;;;;;;;;5089226;28;20246;-64
2022/07/18 00:13:11;;;;;;;2.30;2.17;;;;;;;;;;5097407;28;20708;-63
2022/07/18 00:15:39;;;;;;;2.28;2.08;;;;;;;;;;5089807;28;20626;-63
2022/07/18 00:18:08;;;;;;;2.63;2.15;;;;;;;;;;5089973;28;20233;-64
2022/07/18 00:20:37;;;;;;;4.38;2.10;;;;;;;;;;5089668;28;20212;-64
2022/07/18 00:23:05;;;;;;;2.88;1.92;;;;;;;;;;5088177;28;20377;-62
2022/07/18 00:25:34;;;;;;;2.42;2.22;;;;;;;;;;5083796;28;20290;-64
2022/07/18 00:28:02;;;;;;;2.55;2.30;;;;;;;;;;5088849;28;20237;-64
2022/07/18 00:30:30;;;;;;;2.30;2.10;;;;;;;;;;5075757;28;20207;-64
2022/07/18 00:32:58;;;;;;;2.83;2.10;;;;;;;;;;5090759;28;20675;-63
2022/07/18 00:35:26;;;;;;;2.05;1.92;;;;;;;;;;5088682;28;20207;-63
2022/07/18 00:37:54;;;;;;;3.45;2.20;;;;;;;;;;5092424;28;20210;-63
2022/07/18 00:40:22;;;;;;;2.72;2.53;;;;;;;;;;5096303;28;20230;-64
2022/07/18 00:42:51;;;;;;;1.95;1.85;;;;;;;;;;5093754;28;20248;-64
2022/07/18 00:45:19;;;;;;;3.13;2.10;;;;;;;;;;5092544;28;20229;-64
2022/07/18 00:47:50;;;;;;;2.13;1.98;;;;;;;;;;5094718;28;20243;-64
2022/07/18 00:50:18;;;;;;;2.80;2.22;;;;;;;;;;5082680;28;20207;-64
2022/07/18 00:52:46;;;;;;;2.42;2.17;;;;;;;;;;5093909;28;20233;-64
2022/07/18 00:55:14;;;;;;;3.35;2.38;;;;;;;;;;5090124;28;20280;-64
2022/07/18 00:57:43;;;;;;;3.13;2.73;;;;;;;;;;5084729;28;20208;-64
2022/07/18 01:03:00;;;;;;;4.20;2.10;;;;;;;;;;5086273;28;20207;-64
2022/07/18 01:05:28;;;;;;;3.25;2.17;;;;;;;;;;5091445;28;20227;-64
2022/07/18 01:07:56;;;;;;;3.03;2.13;;;;;;;;;;5089049;28;20218;-64
2022/07/18 01:10:24;;;;;;;3.72;2.28;;;;;;;;;;5096387;28;20645;-63
2022/07/18 01:12:52;;;;;;;3.30;1.95;;;;;;;;;;5084820;28;20641;-64
2022/07/18 01:15:22;;;;;;;4.00;2.00;;;;;;;;;;5091524;28;20214;-64
2022/07/18 01:17:50;;;;;;;2.55;2.03;;;;;;;;;;5077241;28;20250;-64
2022/07/18 01:20:18;;;;;;;5.73;2.10;;;;;;;;;;5083574;28;20248;-64
2022/07/18 01:22:47;;;;;;;2.53;2.30;;;;;;;;;;5087246;28;20265;-64
2022/07/18 01:25:17;;;;;;;2.60;2.40;;;;;;;;;;5086389;28;20251;-64
2022/07/18 01:27:45;;;;;;;2.53;2.33;;;;;;;;;;5087488;28;20220;-64
2022/07/18 01:30:13;;;;;;;4.23;2.60;;;;;;;;;;5086422;28;20208;-64
2022/07/18 01:32:41;;;;;;;3.47;2.27;;;;;;;;;;5098249;28;20341;-64
2022/07/18 01:35:10;;;;;;;3.20;2.17;;;;;;;;;;5086817;28;20200;-64
2022/07/18 01:37:37;;;;;;;2.30;2.10;;;;;;;;;;5090196;28;20647;-64
2022/07/18 01:40:09;;;;;;;2.87;2.50;;;;;;;;;;5088783;28;20210;-63
2022/07/18 01:42:37;;;;;;;2.30;2.10;;;;;;;;;;5098100;28;20677;-63
2022/07/18 01:45:06;;;;;;;2.13;2.03;;;;;;;;;;5092773;28;20280;-64
2022/07/18 01:47:33;;;;;;;2.87;1.87;;;;;;;;;;5091827;28;20283;-64
2022/07/18 01:50:01;;;;;;;3.10;1.80;;;;;;;;;;5089063;28;20206;-63
2022/07/18 01:52:29;;;;;;;5.00;2.20;;;;;;;;;;5095149;28;20220;-64
2022/07/18 01:54:57;;;;;;;2.83;2.27;;;;;;;;;;5085818;28;20228;-63
2022/07/18 01:57:27;;;;;;;3.73;2.00;;;;;;;;;;5090675;28;20244;-63
2022/07/18 01:59:55;;;;;;;1.73;1.63;;;;;;;;;;5093451;28;20236;-63
2022/07/18 02:02:23;;;;;;;2.60;2.10;;;;;;;;;;5089596;28;20676;-63
2022/07/18 02:05:00;;;;;;;5.13;2.10;;;;;;;;;;5096888;28;20228;-63
2022/07/18 02:07:28;;;;;;;3.70;1.90;;;;;;;;;;5099572;28;20233;-63
2022/07/18 02:09:57;;;;;;;3.80;1.97;;;;;;;;;;5087747;28;20256;-64
2022/07/18 02:12:25;;;;;;;4.27;1.90;;;;;;;;;;5091899;28;20667;-64
2022/07/18 02:14:54;;;;;;;1.70;1.60;;;;;;;;;;5088804;28;20682;-64
2022/07/18 02:17:22;;;;;;;2.17;2.07;;;;;;;;;;5085548;28;20246;-64
2022/07/18 02:19:50;;;;;;;2.23;2.00;;;;;;;;;;5085280;28;20202;-63
2022/07/18 02:22:18;;;;;;;2.37;1.73;;;;;;;;;;5087156;28;20268;-63
2022/07/18 02:24:46;;;;;;;4.63;2.00;;;;;;;;;;5089447;28;20602;-62
2022/07/18 02:27:14;;;;;;;2.73;2.00;;;;;;;;;;5088841;28;20252;-62
2022/07/18 02:29:42;;;;;;;2.77;2.53;;;;;;;;;;5098953;28;20214;-63
2022/07/18 02:32:11;;;;;;;2.27;2.07;;;;;;;;;;5084653;28;20237;-63
2022/07/18 02:34:39;;;;;;;2.77;2.50;;;;;;;;;;5096923;28;20768;-63
2022/07/18 02:37:08;;;;;;;2.10;2.00;;;;;;;;;;5090990;28;20683;-63
2022/07/18 02:39:36;;;;;;;2.30;2.00;;;;;;;;;;5092082;28;20214;-63
2022/07/18 02:42:04;;;;;;;2.63;1.80;;;;;;;;;;5092163;28;20215;-63
2022/07/18 02:44:32;;;;;;;2.00;1.80;;;;;;;;;;5088317;28;20270;-62
2022/07/18 02:47:00;;;;;;;2.00;1.90;;;;;;;;;;5095001;28;20590;-62
2022/07/18 02:49:29;;;;;;;2.13;1.97;;;;;;;;;;5092068;28;20209;-62
2022/07/18 02:51:57;;;;;;;2.57;2.37;;;;;;;;;;5098692;28;20615;-62
2022/07/18 02:54:26;;;;;;;3.30;1.90;;;;;;;;;;5096729;28;20224;-62
2022/07/18 02:56:54;;;;;;;3.77;1.80;;;;;;;;;;5091827;28;20234;-62
2022/07/18 02:59:22;;;;;;;2.70;1.80;;;;;;;;;;5090686;28;20210;-62
2022/07/18 03:01:50;;;;;;;2.77;2.03;;;;;;;;;;5087634;28;20205;-62
2022/07/18 03:04:18;;;;;;;1.73;1.63;;;;;;;;;;5096786;28;20236;-62
2022/07/18 03:06:48;;;;;;;3.57;2.10;;;;;;;;;;5089696;28;20233;-62
2022/07/18 03:09:16;;;;;;;3.93;1.90;;;;;;;;;;5094619;28;20203;-61
2022/07/18 03:11:44;;;;;;;2.00;1.80;;;;;;;;;;5098620;28;20231;-61
2022/07/18 03:14:12;;;;;;;3.43;1.90;;;;;;;;;;5087693;28;20228;-61
2022/07/18 03:16:40;;;;;;;2.97;2.00;;;;;;;;;;5095493;28;20265;-61
2022/07/18 03:19:08;;;;;;;2.80;1.70;;;;;;;;;;5091721;28;20201;-61
2022/07/18 03:21:36;;;;;;;3.17;1.93;;;;;;;;;;5085744;28;20287;-61
2022/07/18 03:24:06;;;;;;;2.00;1.80;;;;;;;;;;5094502;28;20238;-60
2022/07/18 03:26:34;;;;;;;5.00;2.03;;;;;;;;;;5093829;28;20284;-61
2022/07/18 03:29:02;;;;;;;2.97;1.87;;;;;;;;;;5096188;28;20236;-62
2022/07/18 03:31:30;;;;;;;1.73;1.63;;;;;;;;;;5095680;28;20249;-61
2022/07/18 03:33:58;;;;;;;2.00;1.77;;;;;;;;;;5092564;28;20256;-59
2022/07/18 03:36:26;;;;;;;2.53;1.60;;;;;;;;;;5087477;28;20592;-59
2022/07/18 03:38:54;;;;;;;2.53;1.90;;;;;;;;;;5087328;28;20245;-59
2022/07/18 03:41:23;;;;;;;1.87;1.77;;;;;;;;;;5097122;28;20690;-61
2022/07/18 03:43:51;;;;;;;1.70;1.60;;;;;;;;;;5092659;28;20234;-59
2022/07/18 03:46:19;;;;;;;2.10;1.80;;;;;;;;;;5093608;28;20247;-59
2022/07/18 03:48:47;;;;;;;2.80;1.80;;;;;;;;;;5098549;28;20697;-62
2022/07/18 03:51:15;;;;;;;1.83;1.73;;;;;;;;;;5102257;28;20202;-59
2022/07/18 03:53:43;;;;;;;2.10;1.93;;;;;;;;;;5112377;28;20712;-62
2022/07/18 03:56:11;;;;;;;1.90;1.60;;;;;;;;;;5096090;28;20240;-61
2022/07/18 03:58:41;;;;;;;1.93;1.80;;;;;;;;;;5094242;28;20239;-60
2022/07/18 04:01:09;;;;;;;3.10;1.70;;;;;;;;;;5097326;28;20215;-59
2022/07/18 04:03:37;;;;;;;1.97;1.87;;;;;;;;;;5097283;28;20250;-59
2022/07/18 04:06:05;;;;;;;3.63;1.80;;;;;;;;;;5088581;28;20209;-61
2022/07/18 04:08:33;;;;;;;2.03;1.60;;;;;;;;;;5098183;28;20262;-59
2022/07/18 04:11:01;;;;;;;3.13;1.90;;;;;;;;;;5088601;28;20205;-60
2022/07/18 04:13:29;;;;;;;3.90;2.03;;;;;;;;;;5089195;28;20655;-60
2022/07/18 04:15:59;;;;;;;3.40;1.70;;;;;;;;;;5090074;28;20205;-60
2022/07/18 04:18:27;;;;;;;3.57;2.10;;;;;;;;;;5080191;28;20601;-59
2022/07/18 04:20:55;;;;;;;2.27;1.70;;;;;;;;;;5087782;28;20649;-60
2022/07/18 04:23:23;;;;;;;1.80;1.57;;;;;;;;;;5088743;28;20242;-60
2022/07/18 04:25:51;;;;;;;1.67;1.57;;;;;;;;;;5088181;28;20238;-60
2022/07/18 04:28:19;;;;;;;1.93;1.83;;;;;;;;;;5096914;28;20388;-60
2022/07/18 04:30:47;;;;;;;1.93;1.60;;;;;;;;;;5091425;28;20250;-60
2022/07/18 04:33:16;;;;;;;4.07;2.37;;;;;;;;;;5085103;28;20268;-60
2022/07/18 04:35:44;;;;;;;1.93;1.80;;;;;;;;;;5081295;28;20243;-60
2022/07/18 04:38:12;;;;;;;2.17;1.77;;;;;;;;;;5097254;28;20197;-60
2022/07/18 04:40:40;;;;;;;1.70;1.60;;;;;;;;;;5082091;28;20209;-60
2022/07/18 04:43:08;;;;;;;4.00;1.67;;;;;;;;;;5091211;28;20226;-60
2022/07/18 04:45:36;;;;;;;2.40;1.90;;;;;;;;;;5088839;28;20241;-60
2022/07/18 04:48:05;;;;;;;5.57;2.00;;;;;;;;;;5090258;28;20270;-61
2022/07/18 04:50:35;;;;;;;2.10;1.40;;;;;;;;;;5085381;28;20233;-60
2022/07/18 04:53:03;;;;;;;2.97;2.13;;;;;;;;;;5090217;28;20269;-60
2022/07/18 04:55:30;;;;;;;1.77;1.67;;;;;;;;;;5080362;28;20244;-60
2022/07/18 04:57:59;;;;;;;1.87;1.67;;;;;;;;;;5093730;28;20259;-60
2022/07/18 05:00:27;;;;;;;1.90;1.80;;;;;;;;;;5100657;28;20319;-59
2022/07/18 05:02:56;;;;;;;1.87;1.60;;;;;;;;;;5089993;28;20210;-59
2022/07/18 05:05:26;;;;;;;3.13;1.97;;;;;;;;;;5089437;28;20211;-59
2022/07/18 05:08:04;;;;;;;1.80;1.70;;;;;;;;;;5085124;28;20234;-59
2022/07/18 05:10:33;;;;;;;3.00;1.90;;;;;;;;;;5111301;28;20200;-60
2022/07/18 05:13:01;;;;;;;3.07;1.80;;;;;;;;;;5101985;28;20587;-59
2022/07/18 05:15:29;;;;;;;7.43;1.93;;;;;;;;;;5100335;28;20205;-60
2022/07/18 05:17:57;;;;;;;1.83;1.60;;;;;;;;;;5100443;28;20204;-60
2022/07/18 05:20:26;;;;;;;2.93;1.73;;;;;;;;;;5106455;28;20295;-60
2022/07/18 05:22:54;;;;;;;2.00;1.80;;;;;;;;;;5103177;28;20233;-60
2022/07/18 05:25:24;;;;;;;3.03;1.87;;;;;;;;;;5103896;28;20254;-59
2022/07/18 05:27:52;;;;;;;2.57;2.30;;;;;;;;;;5102210;28;20223;-59
2022/07/18 05:30:21;;;;;;;2.27;1.83;;;;;;;;;;5106461;28;20237;-59
2022/07/18 05:32:49;;;;;;;1.87;1.77;;;;;;;;;;5094853;28;20262;-60
2022/07/18 05:35:17;;;;;;;5.07;2.40;;;;;;;;;;5097537;28;20199;-59
2022/07/18 05:37:46;;;;;;;4.17;1.73;;;;;;;;;;5089403;28;20547;-59
2022/07/18 05:40:15;;;;;;;2.50;1.80;;;;;;;;;;5091552;28;20547;-59
2022/07/18 05:42:45;;;;;;;3.03;1.70;;;;;;;;;;5102385;28;20206;-59
2022/07/18 05:45:25;;;;;;;3.20;2.00;;;;;;;;;;5094667;28;20211;-59
2022/07/18 05:47:53;;;;;;;2.90;1.97;;;;;;;;;;5097072;28;20259;-59
2022/07/18 05:50:22;;;;;;;2.37;1.83;;;;;;;;;;5086966;28;20202;-59
2022/07/18 05:52:49;;;;;;;2.73;1.93;;;;;;;;;;5094613;28;20243;-60
2022/07/18 05:55:18;;;;;;;2.27;2.00;;;;;;;;;;5092291;28;20246;-59
2022/07/18 05:57:49;;;;;;;1.77;1.63;;;;;;;;;;5088511;28;20215;-59
2022/07/18 06:00:18;;;;;;;4.50;2.03;;;;;;;;;;5087337;28;20678;-59
2022/07/18 06:02:48;;;;;;;2.07;1.87;;;;;;;;;;5090807;28;20256;-59
2022/07/18 06:05:17;;;;;;;2.17;1.93;;;;;;;;;;5103257;28;20211;-59
2022/07/18 06:07:51;;;;;;;3.63;2.23;;;;;;;;;;5086486;28;20670;-59
2022/07/18 06:10:19;;;;;;;2.20;2.03;;;;;;;;;;5099939;28;20211;-59
2022/07/18 06:12:49;;;;;;;2.37;1.80;;;;;;;;;;5092728;28;20228;-60
2022/07/18 06:15:18;;;;;;;2.20;2.00;;;;;;;;;;5094639;28;20205;-59
2022/07/18 06:17:46;;;;;;;3.20;2.30;;;;;;;;;;5096961;28;20660;-59
2022/07/18 06:20:14;;;;;;;4.30;1.97;;;;;;;;;;5099960;28;20210;-59
2022/07/18 06:22:42;;;;;;;2.83;2.20;;;;;;;;;;5091151;28;20601;-59
2022/07/18 06:25:10;;;;;;;5.77;2.77;;;;;;;;;;5091987;28;20220;-60
2022/07/18 06:27:38;;;;;;;2.27;2.07;;;;;;;;;;5093904;28;20205;-60
2022/07/18 06:30:09;;;;;;;4.40;2.40;;;;;;;;;;5098120;28;20270;-60
2022/07/18 06:32:38;;;;;;;2.30;2.10;;;;;;;;;;5094159;28;20202;-60
2022/07/18 06:35:06;;;;;;;4.70;1.90;;;;;;;;;;5092583;28;20259;-60
2022/07/18 06:37:34;;;;;;;1.80;1.70;;;;;;;;;;5095193;28;20241;-59
2022/07/18 06:40:03;;;;;;;3.07;2.20;;;;;;;;;;5106375;28;20201;-59
2022/07/18 06:42:31;;;;;;;2.07;1.70;;;;;;;;;;5094407;28;20200;-60
2022/07/18 06:44:59;;;;;;;3.20;2.30;;;;;;;;;;5099097;28;20661;-64
2022/07/18 06:47:28;;;;;;;4.63;2.27;;;;;;;;;;5091066;28;20280;-59
2022/07/18 06:49:56;;;;;;;3.60;2.00;;;;;;;;;;5100245;28;20229;-59
2022/07/18 06:52:24;;;;;;;2.87;1.90;;;;;;;;;;5095719;28;20217;-59
2022/07/18 06:54:52;;;;;;;3.13;2.23;;;;;;;;;;5100267;28;20230;-60
2022/07/18 06:57:20;;;;;;;4.90;2.43;;;;;;;;;;5091880;28;20209;-59
2022/07/18 06:59:48;;;;;;;2.57;2.37;;;;;;;;;;5102313;28;20613;-60
2022/07/18 07:02:24;;;;;;;2.30;2.10;;;;;;;;;;5094505;28;20274;-59
2022/07/18 07:04:54;;;;;;;6.40;2.13;;;;;;;;;;5097735;28;20229;-61
2022/07/18 07:07:22;;;;;;;2.20;2.00;;;;;;;;;;5096618;28;20323;-62
2022/07/18 07:09:50;;;;;;;3.63;2.43;;;;;;;;;;5096258;28;20717;-62
2022/07/18 07:12:18;;;;;;;2.30;2.10;;;;;;;;;;5094516;28;20237;-61
2022/07/18 07:14:45;;;;;;;2.80;2.53;;;;;;;;;;5087934;28;20258;-62
2022/07/18 07:17:13;;;;;;;2.53;2.07;;;;;;;;;;5088045;28;20236;-62
2022/07/18 07:19:41;;;;;;;2.10;2.00;;;;;;;;;;5090270;28;20560;-62
2022/07/18 07:22:11;;;;;;;4.10;2.17;;;;;;;;;;5087868;28;20665;-62
2022/07/18 07:24:40;;;;;;;5.17;2.37;;;;;;;;;;5097230;28;20257;-62
2022/07/18 07:27:08;;;;;;;2.50;2.30;;;;;;;;;;5090629;28;20201;-62
2022/07/18 07:29:36;;;;;;;3.37;2.00;;;;;;;;;;5094223;28;20296;-62
2022/07/18 07:32:04;;;;;;;2.00;1.90;;;;;;;;;;5099366;28;20232;-62
2022/07/18 07:34:32;;;;;;;4.30;2.60;;;;;;;;;;5094189;28;20226;-63
2022/07/18 07:37:00;;;;;;;2.90;1.87;;;;;;;;;;5096356;28;20225;-64
2022/07/18 07:39:30;;;;;;;3.83;2.57;;;;;;;;;;5085163;28;20204;-64
2022/07/18 07:41:58;;;;;;;6.37;2.17;;;;;;;;;;5087348;28;20231;-64
2022/07/18 07:44:31;;;;;;;2.63;2.20;;;;;;;;;;5095029;28;20240;-64
2022/07/18 07:47:00;;;;;;;2.63;2.40;;;;;;;;;;5087212;28;20203;-64
2022/07/18 07:49:28;;;;;;;2.27;2.07;;;;;;;;;;5098363;28;20775;-64
2022/07/18 07:51:57;;;;;;;5.97;2.53;;;;;;;;;;5095726;28;20199;-64
2022/07/18 07:54:25;;;;;;;4.53;2.30;;;;;;;;;;5094001;28;20252;-64
2022/07/18 07:56:54;;;;;;;3.97;2.20;;;;;;;;;;5097158;28;20255;-64
2022/07/18 07:59:22;;;;;;;4.10;2.37;;;;;;;;;;5086640;28;20201;-64
2022/07/18 08:01:50;;;;;;;4.97;2.20;;;;;;;;;;5088040;28;20211;-64
2022/07/18 08:04:18;;;;;;;6.70;2.83;;;;;;;;;;5092244;28;20313;-64
2022/07/18 08:06:46;;;;;;;5.13;2.30;;;;;;;;;;5089519;28;20218;-64
2022/07/18 08:09:14;;;;;;;3.10;2.53;;;;;;;;;;5092901;28;20257;-64
2022/07/18 08:11:42;;;;;;;4.03;2.47;;;;;;;;;;5091199;28;20208;-64
2022/07/18 08:14:11;;;;;;;3.17;2.87;;;;;;;;;;5085658;28;20232;-64
2022/07/18 08:16:40;;;;;;;6.57;2.77;;;;;;;;;;5087351;28;20238;-64
2022/07/18 08:19:08;;;;;;;3.10;2.13;;;;;;;;;;5084210;28;20203;-64
2022/07/18 08:21:36;;;;;;;4.27;2.53;;;;;;;;;;5089679;28;20213;-64
2022/07/18 08:24:04;;;;;;;4.30;2.80;;;;;;;;;;5097202;28;20282;-63
2022/07/18 08:26:33;;;;;;;3.27;2.37;;;;;;;;;;5093517;28;20204;-64
2022/07/18 08:29:02;;;;;;;6.43;2.73;;;;;;;;;;5091246;28;20788;-63
2022/07/18 08:31:31;;;;;;;7.27;2.57;;;;;;;;;;5099974;28;20209;-63
2022/07/18 08:34:00;;;;;;;2.57;2.37;;;;;;;;;;5101375;28;20292;-63
2022/07/18 08:36:28;;;;;;;5.53;2.73;;;;;;;;;;5090332;28;20213;-63
2022/07/18 08:38:56;;;;;;;3.73;2.27;;;;;;;;;;5100917;28;20546;-63
2022/07/18 08:41:24;;;;;;;4.03;2.60;;;;;;;;;;5097317;28;20215;-64
2022/07/18 08:43:53;;;;;;;3.95;2.38;;;;;;;;;;5097588;28;20228;-64
2022/07/18 08:46:22;;;;;;;4.78;2.60;;;;;;;;;;5100041;28;20627;-64
2022/07/18 08:48:53;;;;;;;6.35;2.22;;;;;;;;;;5098915;28;20208;-64
2022/07/18 08:51:22;;;;;;;3.83;2.40;;;;;;;;;;5099245;28;20342;-64
2022/07/18 08:53:51;;;;;;;2.88;2.60;;;;;;;;;;5101052;28;20228;-64
2022/07/18 08:56:19;;;;;;;7.10;2.55;;;;;;;;;;5099688;28;20209;-63
2022/07/18 08:58:47;;;;;;;5.38;2.90;;;;;;;;;;5098071;28;20212;-63
2022/07/18 09:01:15;;;;;;;5.22;3.00;;;;;;;;;;5098018;28;20201;-61
2022/07/18 09:03:43;;;;;;;3.42;2.85;;;;;;;;;;5094202;28;20225;-64
2022/07/18 09:06:14;;;;;;;6.20;2.40;;;;;;;;;;5099754;28;20209;-62
2022/07/18 09:08:58;;;;;;;5.15;2.58;;;;;;;;;;5094039;28;20628;-64
2022/07/18 09:11:26;;;;;;;7.57;2.53;;;;;;;;;;5090516;28;20229;-64
2022/07/18 09:14:27;;;;;;;3.28;2.75;;;;;;;;;;5100614;28;20320;-63
2022/07/18 09:17:00;;;;;;;7.85;2.90;;;;;;;;;;5099227;28;20688;-62
2022/07/18 09:19:28;;;;;;;3.78;2.25;;;;;;;;;;5089047;28;20237;-63
2022/07/18 09:22:11;;;;;;;5.60;2.53;;;;;;;;;;5081219;28;20221;-64
2022/07/18 09:24:50;;;;;;;2.95;2.70;;;;;;;;;;5094096;28;20261;-65
2022/07/18 09:27:24;;;;;;;4.85;2.30;;;;;;;;;;5084751;28;20668;-64
2022/07/18 09:30:09;;;;;;;5.78;2.50;;;;;;;;;;5101117;28;20271;-64
2022/07/18 09:32:41;;;;;;;3.28;2.58;;;;;;;;;;5099669;28;20212;-62
2022/07/18 09:35:09;;;;;;;6.85;2.63;;;;;;;;;;5094120;28;20642;-62
2022/07/18 09:37:39;;;;;;;4.60;2.63;;;;;;;;;;5095214;28;20241;-61
2022/07/18 09:40:17;;;;;;;3.10;2.50;;;;;;;;;;5092193;28;20210;-62
2022/07/18 09:42:49;;;;;;;6.15;2.30;;;;;;;;;;5086827;28;20211;-63
2022/07/18 09:45:21;;;;;;;3.78;2.35;;;;;;;;;;5087692;28;20210;-62
2022/07/18 09:47:50;;;;;;;5.15;2.70;;;;;;;;;;5086392;28;20205;-62
2022/07/18 09:50:23;;;;;;;3.35;2.80;;;;;;;;;;5098395;28;20645;-64
2022/07/18 09:53:00;;;;;;;3.50;2.55;;;;;;;;;;5080428;28;20202;-63
2022/07/18 09:55:48;;;;;;;5.78;2.90;;;;;;;;;;5096402;28;20209;-64
2022/07/18 09:58:18;;;;;;;6.85;3.17;;;;;;;;;;5086879;28;20735;-64
2022/07/18 10:00:46;;;;;;;13.68;3.80;;;;;;;;;;5088554;28;20197;-64
2022/07/18 10:03:14;;;;;;;7.90;3.13;;;;;;;;;;5097877;28;20312;-64
2022/07/18 10:05:43;;;;;;;11.43;5.18;;;;;;;;;;5093639;28;20632;-63
2022/07/18 10:08:13;;;;;;;3.63;2.63;;;;;;;;;;5097546;28;20220;-61
2022/07/18 10:10:43;;;;;;;5.57;2.75;;;;;;;;;;5091291;28;20249;-64
2022/07/18 10:13:11;;;;;;;3.88;2.58;;;;;;;;;;5095787;28;20248;-64
2022/07/18 10:15:40;;;;;;;3.35;2.42;;;;;;;;;;5096409;28;20256;-63
2022/07/18 10:18:09;;;;;;;5.10;2.47;;;;;;;;;;5098434;28;20216;-64
2022/07/18 10:20:38;;;;;;;4.70;2.55;;;;;;;;;;5099198;28;20276;-63
2022/07/18 10:23:10;;;;;;;2.83;2.63;;;;;;;;;;5098506;28;20658;-63
2022/07/18 10:25:40;;;;;;;3.35;2.35;;;;;;;;;;5097736;28;20205;-62
2022/07/18 10:28:09;;;;;;;4.32;2.83;;;;;;;;;;5091167;28;20202;-62
2022/07/18 10:30:43;;;;;;;13.00;2.88;;;;;;;;;;5099927;28;20237;-62
2022/07/18 10:33:45;;;;;;;3.15;2.40;;;;;;;;;;5090933;28;20233;-61
2022/07/18 10:36:15;;;;;;;2.95;2.55;;;;;;;;;;5032151;28;20257;-62
2022/07/18 10:39:01;;;;;;;3.13;2.78;;;;;;;;;;5037901;28;20235;-62
2022/07/18 10:41:30;;;;;;;3.05;2.70;;;;;;;;;;5070262;28;20599;-62
2022/07/18 10:43:59;;;;;;;6.05;3.03;;;;;;;;;;5094706;28;20304;-62
2022/07/18 10:46:47;;;;;;;3.92;2.47;;;;;;;;;;5093009;28;20209;-62
2022/07/18 10:49:15;;;;;;;3.20;2.67;;;;;;;;;;5092712;28;20213;-62
2022/07/18 10:51:43;;;;;;;3.53;2.50;;;;;;;;;;5088808;28;20696;-63
2022/07/18 10:54:12;;;;;;;4.10;2.72;;;;;;;;;;5098486;28;20229;-65
2022/07/18 10:56:59;;;;;;;3.25;2.42;;;;;;;;;;5091287;28;20205;-66
2022/07/18 10:59:28;;;;;;;6.13;3.53;;;;;;;;;;5100967;28;20261;-66
2022/07/18 11:01:57;;;;;;;3.47;2.70;;;;;;;;;;5097517;28;20225;-65
2022/07/18 11:04:27;;;;;;;3.92;2.63;;;;;;;;;;5100337;28;20221;-64
2022/07/18 11:07:04;;;;;;;5.25;3.55;;;;;;;;;;5087418;28;20206;-65
2022/07/18 11:09:34;;;;;;;5.47;3.10;;;;;;;;;;5090706;28;20236;-65
2022/07/18 11:12:20;;;;;;;5.50;3.38;;;;;;;;;;5093078;28;20228;-64
2022/07/18 11:15:07;;;;;;;4.53;2.67;;;;;;;;;;5093647;28;20244;-65
2022/07/18 11:17:58;;;;;;;2.08;1.92;;;;;;;;;;5087880;28;20205;-65
2022/07/18 11:20:44;;;;;;;3.10;2.25;;;;;;;;;;5095601;28;20209;-65
2022/07/18 11:23:19;;;;;;;6.78;2.50;;;;;;;;;;5088451;28;20298;-65
2022/07/18 11:25:48;;;;;;;7.05;2.60;;;;;;;;;;5092527;28;20668;-65
2022/07/18 11:28:26;;;;;;;2.70;2.50;;;;;;;;;;5088707;28;20232;-65
2022/07/18 11:31:03;;;;;;;4.35;2.70;;;;;;;;;;5096604;28;20198;-65
2022/07/18 11:33:33;;;;;;;6.25;2.60;;;;;;;;;;5095581;28;20260;-65
2022/07/18 11:36:05;;;;;;;2.53;2.30;;;;;;;;;;5090684;28;20274;-65
2022/07/18 11:38:34;;;;;;;3.13;2.33;;;;;;;;;;5097657;28;20227;-65
2022/07/18 11:41:03;;;;;;;4.78;2.40;;;;;;;;;;5082067;28;20205;-63
2022/07/18 11:43:31;;;;;;;4.35;2.33;;;;;;;;;;5078570;28;20229;-64
2022/07/18 11:46:00;;;;;;;3.05;2.47;;;;;;;;;;5090317;28;20204;-63
2022/07/18 11:48:30;;;;;;;3.30;2.50;;;;;;;;;;5085071;28;20240;-63
2022/07/18 11:50:58;;;;;;;2.92;2.53;;;;;;;;;;5092648;28;20205;-64
2022/07/18 11:53:26;;;;;;;8.20;3.10;;;;;;;;;;5080848;28;20229;-63
2022/07/18 11:55:57;;;;;;;2.80;2.60;;;;;;;;;;5094833;28;20267;-65
2022/07/18 11:58:25;;;;;;;5.00;2.33;;;;;;;;;;5091842;28;20219;-65
2022/07/18 12:00:59;;;;;;;3.85;3.50;;;;;;;;;;5084694;28;20193;-65
2022/07/18 12:03:27;;;;;;;2.42;2.22;;;;;;;;;;5097363;28;20751;-63
2022/07/18 12:05:56;;;;;;;5.93;2.70;;;;;;;;;;5087485;28;20197;-64
2022/07/18 12:08:32;;;;;;;2.88;2.67;;;;;;;;;;5086314;28;20213;-61
2022/07/18 12:11:12;;;;;;;3.45;2.53;;;;;;;;;;5087699;28;20228;-61
2022/07/18 12:13:41;;;;;;;3.15;2.17;;;;;;;;;;5082313;28;20274;-61
2022/07/18 12:16:09;;;;;;;3.40;2.40;;;;;;;;;;5092036;28;20561;-61
2022/07/18 12:18:37;;;;;;;3.13;2.30;;;;;;;;;;5087864;28;20216;-61
2022/07/18 12:21:09;;;;;;;2.65;2.45;;;;;;;;;;5089766;28;20209;-61
2022/07/18 12:23:37;;;;;;;3.80;2.55;;;;;;;;;;5082322;28;20246;-61
2022/07/18 12:26:05;;;;;;;4.25;2.58;;;;;;;;;;5087504;28;20562;-61
2022/07/18 12:28:33;;;;;;;3.28;3.08;;;;;;;;;;5094136;28;20232;-61
2022/07/18 12:31:01;;;;;;;4.97;2.60;;;;;;;;;;5092156;28;20213;-61
2022/07/18 12:33:29;;;;;;;2.50;2.30;;;;;;;;;;5092318;28;20252;-63
2022/07/18 12:35:58;;;;;;;2.35;2.22;;;;;;;;;;5090413;28;20229;-61
2022/07/18 12:38:28;;;;;;;5.05;2.60;;;;;;;;;;5096919;28;20255;-61
2022/07/18 12:40:57;;;;;;;2.60;2.40;;;;;;;;;;5089301;28;20235;-63
2022/07/18 12:43:27;;;;;;;2.65;2.30;;;;;;;;;;5101298;28;20248;-62
2022/07/18 12:45:56;;;;;;;3.20;2.25;;;;;;;;;;5088961;28;20193;-62
2022/07/18 12:48:24;;;;;;;2.22;2.03;;;;;;;;;;5096794;28;20207;-61
2022/07/18 12:51:00;;;;;;;9.68;2.55;;;;;;;;;;5088085;28;20226;-60
2022/07/18 12:53:30;;;;;;;4.68;2.60;;;;;;;;;;5101284;28;20239;-61
2022/07/18 12:55:58;;;;;;;4.32;2.55;;;;;;;;;;5092591;28;20205;-60
2022/07/18 12:58:26;;;;;;;5.68;2.63;;;;;;;;;;5094579;28;20243;-61
2022/07/18 13:00:55;;;;;;;3.45;2.72;;;;;;;;;;5080193;28;20289;-61
2022/07/18 13:03:32;;;;;;;3.58;2.53;;;;;;;;;;5090316;28;20222;-61
2022/07/18 13:06:00;;;;;;;5.47;2.47;;;;;;;;;;5088745;28;20201;-60
2022/07/18 13:08:30;;;;;;;3.22;2.28;;;;;;;;;;5091739;28;20729;-60
2022/07/18 13:10:58;;;;;;;2.78;2.58;;;;;;;;;;5099741;28;20197;-60
2022/07/18 13:13:26;;;;;;;2.78;2.20;;;;;;;;;;5099426;28;20244;-60
2022/07/18 13:15:55;;;;;;;3.00;2.38;;;;;;;;;;5094565;28;20198;-61
2022/07/18 13:18:23;;;;;;;3.15;2.17;;;;;;;;;;5099289;28;20553;-60
2022/07/18 13:20:51;;;;;;;3.45;2.33;;;;;;;;;;5090990;28;20197;-62
2022/07/18 13:23:19;;;;;;;2.88;2.00;;;;;;;;;;5092438;28;20260;-62
2022/07/18 13:25:48;;;;;;;3.85;2.25;;;;;;;;;;5086645;28;20244;-61
2022/07/18 13:28:16;;;;;;;2.55;2.10;;;;;;;;;;5100663;28;20258;-61
2022/07/18 13:30:44;;;;;;;2.30;2.05;;;;;;;;;;5082803;28;20680;-62
2022/07/18 13:33:12;;;;;;;2.65;2.28;;;;;;;;;;5097354;28;20221;-62
2022/07/18 13:35:40;;;;;;;3.28;2.97;;;;;;;;;;5092997;28;20232;-62
2022/07/18 13:38:08;;;;;;;2.67;2.35;;;;;;;;;;5101053;28;20568;-63
2022/07/18 13:40:36;;;;;;;5.35;2.20;;;;;;;;;;5093549;28;20206;-61
2022/07/18 13:43:05;;;;;;;3.88;2.08;;;;;;;;;;5093319;28;20689;-60
2022/07/18 13:45:33;;;;;;;5.75;2.45;;;;;;;;;;5085728;28;20219;-61
2022/07/18 13:48:01;;;;;;;5.15;2.40;;;;;;;;;;5087403;28;20695;-62
2022/07/18 13:50:30;;;;;;;3.05;2.50;;;;;;;;;;5096438;28;20209;-62
2022/07/18 13:52:58;;;;;;;4.13;2.25;;;;;;;;;;5086693;28;20273;-62
2022/07/18 13:55:26;;;;;;;3.70;2.30;;;;;;;;;;5097086;28;20258;-62
2022/07/18 13:57:55;;;;;;;2.50;2.30;;;;;;;;;;5088490;28;20669;-61
2022/07/18 14:00:24;;;;;;;2.70;1.80;;;;;;;;;;5080611;28;20716;-62
2022/07/18 14:02:52;;;;;;;5.70;2.65;;;;;;;;;;5094088;28;20201;-62
2022/07/18 14:05:20;;;;;;;6.40;2.65;;;;;;;;;;5086837;28;20237;-62
2022/07/18 14:07:49;;;;;;;3.55;2.22;;;;;;;;;;5082826;28;20237;-62
2022/07/18 14:10:17;;;;;;;5.72;2.42;;;;;;;;;;5099015;28;20201;-62
2022/07/18 14:12:45;;;;;;;4.00;2.08;;;;;;;;;;5093036;28;20217;-62
2022/07/18 14:15:13;;;;;;;4.72;2.38;;;;;;;;;;5090682;28;20279;-62
2022/07/18 14:17:42;;;;;;;10.50;2.28;;;;;;;;;;5093725;28;20216;-62
2022/07/18 14:20:11;;;;;;;4.60;2.88;;;;;;;;;;5095742;28;20239;-62
2022/07/18 14:22:39;;;;;;;3.10;2.40;;;;;;;;;;5099963;28;20229;-62
2022/07/18 14:25:09;;;;;;;3.42;2.58;;;;;;;;;;5095251;28;20205;-62
2022/07/18 14:27:37;;;;;;;2.58;2.47;;;;;;;;;;5081945;28;20295;-62
2022/07/18 14:30:06;;;;;;;3.78;2.50;;;;;;;;;;5090392;28;20202;-62
2022/07/18 14:32:34;;;;;;;2.58;2.20;;;;;;;;;;5095425;28;20235;-62
2022/07/18 14:35:04;;;;;;;2.63;2.42;;;;;;;;;;5083851;28;20478;-62
2022/07/18 14:37:32;;;;;;;6.95;2.45;;;;;;;;;;5092727;28;20649;-62
2022/07/18 14:40:00;;;;;;;2.20;2.00;;;;;;;;;;5097715;28;20205;-62
2022/07/18 14:42:28;;;;;;;3.45;2.53;;;;;;;;;;5099600;28;20237;-62
2022/07/18 14:44:56;;;;;;;3.08;2.80;;;;;;;;;;5098639;28;20574;-62
2022/07/18 14:47:24;;;;;;;3.13;2.20;;;;;;;;;;5098777;28;20205;-62
2022/07/18 14:49:52;;;;;;;2.97;2.70;;;;;;;;;;5098985;28;20235;-62
2022/07/18 14:52:22;;;;;;;2.25;2.10;;;;;;;;;;5095428;28;20240;-62
2022/07/18 14:54:50;;;;;;;4.57;2.30;;;;;;;;;;5088673;28;20605;-62
2022/07/18 14:57:18;;;;;;;2.22;2.00;;;;;;;;;;5085646;28;20212;-62
2022/07/18 14:59:47;;;;;;;2.88;2.50;;;;;;;;;;5095595;28;20213;-62